createdAt,value
2018-10-21T00:01:18.324Z,28.53
2018-10-21T00:03:47.023Z,27.80
2018-10-21T00:06:15.707Z,29.17
2018-10-21T00:08:45.671Z,30.40
2018-10-21T00:11:14.976Z,27.53
2018-10-21T00:13:43.657Z,28.33
2018-10-21T00:16:12.426Z,28.60
2018-10-21T00:18:41.255Z,26.40
2018-10-21T00:21:10.130Z,29.50
2018-10-21T00:23:38.826Z,28.93
2018-10-21T00:26:07.549Z,28.93
2018-10-21T00:28:36.498Z,27.67
2018-10-21T00:31:05.638Z,28.47
2018-10-21T00:33:34.675Z,28.47
2018-10-21T00:36:03.486Z,28.20
2018-10-21T00:38:32.234Z,29.47
2018-10-21T00:41:00.997Z,30.23
2018-10-21T00:43:29.852Z,31.00
2018-10-21T00:45:58.538Z,30.30
2018-10-21T00:48:27.543Z,30.17
2018-10-21T00:50:56.306Z,30.80
2018-10-21T00:53:24.970Z,29.07
2018-10-21T00:55:54.027Z,29.17
2018-10-21T00:58:22.769Z,28.00
2018-10-21T01:00:51.516Z,28.23
2018-10-21T01:03:20.383Z,28.67
2018-10-21T01:05:49.094Z,28.93
2018-10-21T01:08:17.807Z,28.50
2018-10-21T01:10:46.577Z,29.00
2018-10-21T01:13:15.211Z,29.10
2018-10-21T01:15:43.943Z,28.30
2018-10-21T01:18:12.671Z,30.07
2018-10-21T01:20:41.441Z,31.90
2018-10-21T01:23:10.150Z,30.47
2018-10-21T01:25:38.892Z,29.30
2018-10-21T01:28:07.654Z,29.80
2018-10-21T01:30:37.694Z,31.34
2018-10-21T01:33:06.740Z,31.57
2018-10-21T01:35:35.397Z,32.03
2018-10-21T01:38:04.178Z,31.20
2018-10-21T01:40:34.250Z,32.73
2018-10-21T01:43:03.242Z,32.97
2018-10-21T01:45:32.011Z,32.23
2018-10-21T01:48:01.839Z,32.30
2018-10-21T01:50:30.565Z,31.33
2018-10-21T01:53:00.452Z,32.03
2018-10-21T01:55:29.161Z,32.50
2018-10-21T01:57:58.439Z,33.60
2018-10-21T02:00:27.791Z,31.47
2018-10-21T02:02:57.000Z,32.07
2018-10-21T02:05:25.775Z,31.97
2018-10-21T02:07:54.731Z,32.67
2018-10-21T02:10:23.572Z,32.87
2018-10-21T02:12:52.352Z,32.63
2018-10-21T02:15:21.123Z,31.23
2018-10-21T02:17:49.916Z,30.70
2018-10-21T02:20:19.211Z,31.37
2018-10-21T02:22:48.375Z,33.07
2018-10-21T02:25:17.148Z,31.90
2018-10-21T02:27:46.517Z,32.77
2018-10-21T02:30:20.069Z,33.50
2018-10-21T02:32:49.470Z,32.20
2018-10-21T02:35:18.802Z,33.33
2018-10-21T02:37:47.907Z,33.23
2018-10-21T02:41:36.327Z,33.07
2018-10-21T02:44:06.175Z,33.43
2018-10-21T02:46:35.329Z,32.67
2018-10-21T02:49:04.814Z,32.77
2018-10-21T02:51:33.587Z,32.30
2018-10-21T02:54:02.313Z,33.87
2018-10-21T02:56:31.035Z,31.77
2018-10-21T02:58:59.733Z,32.57
2018-10-21T03:01:28.481Z,32.57
2018-10-21T03:03:57.172Z,34.07
2018-10-21T03:06:25.949Z,34.07
2018-10-21T03:08:54.891Z,32.80
2018-10-21T03:11:23.589Z,34.20
2018-10-21T03:13:52.344Z,33.37
2018-10-21T03:16:21.108Z,33.53
2018-10-21T03:18:49.976Z,33.30
2018-10-21T03:21:18.739Z,34.27
2018-10-21T03:23:47.427Z,33.67
2018-10-21T03:26:16.341Z,33.97
2018-10-21T03:28:45.151Z,34.50
2018-10-21T03:31:13.847Z,35.63
2018-10-21T03:33:42.740Z,34.07
2018-10-21T03:36:11.479Z,36.13
2018-10-21T03:38:40.127Z,36.03
2018-10-21T03:41:08.870Z,35.90
2018-10-21T03:43:37.579Z,35.43
2018-10-21T03:46:06.387Z,35.40
2018-10-21T03:48:35.107Z,35.47
2018-10-21T03:51:03.870Z,35.33
2018-10-21T03:53:32.551Z,34.40
2018-10-21T03:56:02.168Z,33.63
2018-10-21T03:58:30.915Z,34.57
2018-10-21T04:00:59.615Z,35.07
2018-10-21T04:03:28.964Z,34.80
2018-10-21T04:05:57.624Z,34.20
2018-10-21T04:08:26.328Z,35.80
2018-10-21T04:10:55.022Z,35.60
2018-10-21T04:13:23.684Z,35.23
2018-10-21T04:15:52.462Z,35.13
2018-10-21T04:18:21.288Z,33.30
2018-10-21T04:20:49.954Z,34.77
2018-10-21T04:23:18.600Z,34.10
2018-10-21T04:25:47.288Z,35.97
2018-10-21T04:28:16.098Z,37.23
2018-10-21T04:30:44.707Z,35.00
2018-10-21T04:33:18.762Z,34.60
2018-10-21T04:35:47.451Z,35.80
2018-10-21T04:38:30.359Z,35.83
2018-10-21T04:40:59.105Z,35.77
2018-10-21T04:43:27.857Z,37.77
2018-10-21T04:45:56.536Z,38.17
2018-10-21T04:48:25.224Z,39.17
2018-10-21T04:50:54.118Z,39.17
2018-10-21T04:53:22.968Z,39.47
2018-10-21T04:55:51.630Z,39.17
2018-10-21T04:58:20.495Z,40.20
2018-10-21T05:00:49.241Z,39.03
2018-10-21T05:03:18.127Z,37.67
2018-10-21T05:05:46.792Z,38.43
2018-10-21T05:08:15.448Z,37.50
2018-10-21T05:10:44.179Z,37.73
2018-10-21T05:13:12.916Z,37.17
2018-10-21T05:15:41.570Z,37.83
2018-10-21T05:18:10.265Z,38.60
2018-10-21T05:20:38.937Z,37.50
2018-10-21T05:23:07.651Z,36.93
2018-10-21T05:25:36.322Z,36.27
2018-10-21T05:28:05.122Z,36.50
2018-10-21T05:30:33.911Z,37.23
2018-10-21T05:33:02.585Z,37.03
2018-10-21T05:35:31.461Z,38.13
2018-10-21T05:38:00.381Z,36.47
2018-10-21T05:40:29.122Z,37.07
2018-10-21T05:42:58.046Z,37.07
2018-10-21T05:45:26.794Z,36.07
2018-10-21T05:47:55.784Z,37.07
2018-10-21T05:50:24.506Z,36.57
2018-10-21T05:52:53.192Z,37.33
2018-10-21T05:55:22.049Z,37.27
2018-10-21T05:57:50.719Z,37.30
2018-10-21T06:00:20.425Z,37.30
2018-10-21T06:02:49.468Z,36.53
2018-10-21T06:05:41.839Z,36.57
2018-10-21T06:08:10.967Z,35.57
2018-10-21T06:10:39.887Z,37.80
2018-10-21T06:13:08.753Z,36.73
2018-10-21T06:15:37.464Z,36.73
2018-10-21T06:18:08.722Z,37.50
2018-10-21T06:20:39.860Z,37.63
2018-10-21T06:23:08.543Z,37.53
2018-10-21T06:25:37.246Z,36.43
2018-10-21T06:28:06.416Z,36.80
2018-10-21T06:30:35.318Z,35.77
2018-10-21T06:33:04.234Z,38.50
2018-10-21T06:35:33.081Z,37.40
2018-10-21T06:38:01.769Z,37.53
2018-10-21T06:40:30.479Z,36.30
2018-10-21T06:42:59.246Z,37.63
2018-10-21T06:45:28.170Z,37.00
2018-10-21T06:47:56.920Z,38.53
2018-10-21T06:50:25.787Z,38.67
2018-10-21T06:52:54.497Z,37.30
2018-10-21T06:55:23.141Z,36.73
2018-10-21T06:57:51.865Z,38.93
2018-10-21T07:00:20.551Z,36.73
2018-10-21T07:02:49.355Z,38.33
2018-10-21T07:05:29.405Z,37.57
2018-10-21T07:07:58.077Z,37.43
2018-10-21T07:10:26.798Z,39.10
2018-10-21T07:12:55.446Z,36.13
2018-10-21T07:15:24.174Z,38.73
2018-10-21T07:17:53.124Z,36.27
2018-10-21T07:20:21.999Z,36.27
2018-10-21T07:22:50.729Z,38.23
2018-10-21T07:25:19.654Z,38.57
2018-10-21T07:27:48.547Z,38.77
2018-10-21T07:30:17.471Z,38.90
2018-10-21T07:32:46.240Z,37.10
2018-10-21T07:35:15.300Z,36.33
2018-10-21T07:37:44.577Z,37.10
2018-10-21T07:40:14.288Z,37.37
2018-10-21T07:42:43.498Z,38.23
2018-10-21T07:45:12.533Z,37.60
2018-10-21T07:47:41.287Z,38.10
2018-10-21T07:50:10.107Z,38.50
2018-10-21T07:52:38.827Z,38.23
2018-10-21T07:55:07.567Z,38.37
2018-10-21T07:57:36.248Z,38.23
2018-10-21T08:00:05.517Z,36.97
2018-10-21T08:02:34.259Z,38.40
2018-10-21T08:05:03.206Z,36.83
2018-10-21T08:07:43.026Z,36.93
2018-10-21T08:10:11.947Z,36.87
2018-10-21T08:12:40.718Z,36.93
2018-10-21T08:15:09.495Z,37.20
2018-10-21T08:17:38.195Z,37.77
2018-10-21T08:20:07.466Z,36.50
2018-10-21T08:22:36.301Z,35.80
2018-10-21T08:25:05.313Z,36.47
2018-10-21T08:27:34.126Z,35.77
2018-10-21T08:30:03.015Z,37.00
2018-10-21T08:32:31.917Z,37.83
2018-10-21T08:35:00.623Z,37.53
2018-10-21T08:37:29.554Z,35.00
2018-10-21T08:39:58.387Z,36.63
2018-10-21T08:42:27.069Z,35.27
2018-10-21T08:44:55.941Z,36.17
2018-10-21T08:47:25.221Z,37.37
2018-10-21T08:49:54.314Z,36.90
2018-10-21T08:52:23.229Z,35.50
2018-10-21T08:54:51.993Z,36.63
2018-10-21T08:57:20.728Z,35.70
2018-10-21T08:59:49.468Z,35.13
2018-10-21T09:02:18.473Z,34.97
2018-10-21T09:04:47.255Z,34.23
2018-10-21T09:07:16.049Z,34.83
2018-10-21T09:09:45.038Z,34.70
2018-10-21T09:12:13.810Z,34.47
2018-10-21T09:14:42.710Z,34.03
2018-10-21T09:17:11.542Z,34.00
2018-10-21T09:19:40.223Z,32.20
2018-10-21T09:22:09.256Z,33.43
2018-10-21T09:24:38.102Z,31.37
2018-10-21T09:27:07.236Z,32.73
2018-10-21T09:29:36.042Z,31.30
2018-10-21T09:32:04.773Z,32.93
2018-10-21T09:34:33.613Z,30.63
2018-10-21T09:37:02.348Z,30.70
2018-10-21T09:39:30.998Z,31.10
2018-10-21T09:41:59.722Z,30.07
2018-10-21T09:44:28.464Z,29.80
2018-10-21T09:46:57.164Z,29.83
2018-10-21T09:49:26.065Z,28.93
2018-10-21T09:51:54.788Z,29.30
2018-10-21T09:54:23.558Z,29.77
2018-10-21T09:56:52.228Z,30.90
2018-10-21T09:59:20.869Z,29.57
2018-10-21T10:01:54.888Z,29.00
2018-10-21T10:04:23.601Z,29.07
2018-10-21T10:06:52.534Z,28.43
2018-10-21T10:09:21.233Z,27.40
2018-10-21T10:11:50.024Z,29.03
2018-10-21T10:14:18.692Z,27.70
2018-10-21T10:16:47.534Z,27.40
2018-10-21T10:19:16.229Z,26.97
2018-10-21T10:21:44.897Z,28.43
2018-10-21T10:24:13.729Z,27.17
2018-10-21T10:26:42.611Z,26.67
2018-10-21T10:29:11.272Z,26.23
2018-10-21T10:31:40.162Z,24.67
2018-10-21T10:34:08.941Z,24.47
2018-10-21T10:36:37.525Z,24.87
2018-10-21T10:39:09.069Z,24.10
2018-10-21T10:41:38.246Z,22.97
2018-10-21T10:44:06.919Z,23.30
2018-10-21T10:46:35.635Z,23.80
2018-10-21T10:49:04.575Z,23.93
2018-10-21T10:51:33.371Z,23.33
2018-10-21T10:54:02.078Z,20.33
2018-10-21T10:56:30.913Z,21.60
2018-10-21T10:58:59.557Z,22.10
2018-10-21T11:01:28.260Z,22.57
2018-10-21T11:03:57.066Z,21.70
2018-10-21T11:06:26.032Z,21.83
2018-10-21T11:08:54.982Z,21.13
2018-10-21T11:11:23.701Z,20.73
2018-10-21T11:13:52.374Z,20.80
2018-10-21T11:16:21.205Z,18.87
2018-10-21T11:18:50.258Z,19.70
2018-10-21T11:21:18.956Z,19.17
2018-10-21T11:23:47.890Z,19.07
2018-10-21T11:26:16.545Z,19.27
2018-10-21T11:28:45.389Z,19.03
2018-10-21T11:31:14.544Z,19.30
2018-10-21T11:33:43.217Z,19.77
2018-10-21T11:36:11.945Z,20.17
2018-10-21T11:38:40.669Z,19.90
2018-10-21T11:41:09.343Z,19.93
2018-10-21T11:43:38.283Z,18.13
2018-10-21T11:46:07.399Z,17.90
2018-10-21T11:48:36.062Z,17.23
2018-10-21T11:51:04.780Z,18.10
2018-10-21T11:53:33.554Z,17.90
2018-10-21T11:56:02.292Z,18.17
2018-10-21T11:58:31.114Z,19.23
2018-10-21T12:01:00.094Z,18.83
2018-10-21T12:03:28.836Z,18.97
2018-10-21T12:05:57.563Z,19.43
2018-10-21T12:08:26.280Z,18.40
2018-10-21T12:10:54.983Z,18.70
2018-10-21T12:13:23.881Z,19.57
2018-10-21T12:15:52.583Z,20.30
2018-10-21T12:18:21.489Z,19.13
2018-10-21T12:20:50.201Z,19.00
2018-10-21T12:23:19.004Z,19.03
2018-10-21T12:25:47.692Z,19.90
2018-10-21T12:28:16.512Z,18.63
2018-10-21T12:30:45.208Z,18.53
2018-10-21T12:33:13.963Z,18.90
2018-10-21T12:35:42.609Z,19.77
2018-10-21T12:38:11.306Z,18.77
2018-10-21T12:40:40.068Z,20.63
2018-10-21T12:43:09.075Z,19.77
2018-10-21T12:45:37.942Z,20.93
2018-10-21T12:48:06.902Z,19.83
2018-10-21T12:50:35.942Z,19.50
2018-10-21T12:53:05.406Z,17.83
2018-10-21T12:55:38.072Z,17.80
2018-10-21T12:58:07.014Z,16.67
2018-10-21T13:00:35.856Z,17.43
2018-10-21T13:03:04.582Z,16.47
2018-10-21T13:05:33.349Z,17.13
2018-10-21T13:08:02.198Z,15.53
2018-10-21T13:10:30.871Z,13.53
2018-10-21T13:12:59.852Z,11.80
2018-10-21T13:15:28.427Z,12.97
2018-10-21T13:17:57.097Z,14.40
2018-10-21T13:20:25.795Z,14.13
2018-10-21T13:22:54.545Z,13.90
2018-10-21T13:25:23.228Z,12.53
2018-10-21T13:27:51.935Z,12.90
2018-10-21T13:30:20.741Z,12.40
2018-10-21T13:32:49.872Z,13.17
2018-10-21T13:35:18.861Z,13.13
2018-10-21T13:37:47.707Z,12.83
2018-10-21T13:40:16.509Z,12.53
2018-10-21T13:42:45.178Z,13.23
2018-10-21T13:45:13.864Z,12.80
2018-10-21T13:47:42.624Z,13.10
2018-10-21T13:50:11.347Z,13.10
2018-10-21T13:52:40.059Z,12.47
2018-10-21T13:55:09.439Z,13.07
2018-10-21T13:57:38.257Z,13.27
2018-10-21T14:00:07.795Z,14.30
2018-10-21T14:02:36.516Z,13.73
2018-10-21T14:05:06.165Z,13.87
2018-10-21T14:07:35.189Z,13.83
2018-10-21T14:10:04.156Z,13.40
2018-10-21T14:12:32.861Z,12.87
2018-10-21T14:15:01.644Z,13.13
2018-10-21T14:17:30.335Z,13.27
2018-10-21T14:19:58.983Z,12.47
2018-10-21T14:22:27.784Z,12.37
2018-10-21T14:24:56.601Z,12.40
2018-10-21T14:27:25.335Z,12.27
2018-10-21T14:29:54.092Z,11.53
2018-10-21T14:32:22.834Z,11.70
2018-10-21T14:34:51.919Z,11.83
2018-10-21T14:37:20.796Z,12.40
2018-10-21T14:39:49.747Z,11.93
2018-10-21T14:42:18.583Z,11.70
2018-10-21T14:44:47.262Z,11.87
2018-10-21T14:47:16.020Z,10.77
2018-10-21T14:49:44.851Z,10.83
2018-10-21T14:52:13.637Z,10.60
2018-10-21T14:54:42.360Z,9.47
2018-10-21T14:57:11.224Z,9.83
2018-10-21T14:59:39.977Z,10.13
2018-10-21T15:02:08.917Z,10.50
2018-10-21T15:04:37.755Z,11.10
2018-10-21T15:07:06.819Z,10.10
2018-10-21T15:09:35.738Z,9.60
2018-10-21T15:12:04.741Z,9.00
2018-10-21T15:14:33.715Z,8.60
2018-10-21T15:17:02.707Z,9.60
2018-10-21T15:19:31.850Z,10.43
2018-10-21T15:22:00.609Z,10.90
2018-10-21T15:24:29.456Z,10.30
2018-10-21T15:26:58.159Z,10.20
2018-10-21T15:29:26.888Z,10.17
2018-10-21T15:31:55.755Z,10.17
2018-10-21T15:34:24.552Z,10.57
2018-10-21T15:36:53.280Z,10.63
2018-10-21T15:39:22.004Z,10.00
2018-10-21T15:41:50.938Z,9.97
2018-10-21T15:44:19.802Z,10.67
2018-10-21T15:46:48.530Z,9.30
2018-10-21T15:49:17.227Z,9.87
2018-10-21T15:51:46.046Z,9.37
2018-10-21T15:54:14.747Z,10.57
2018-10-21T15:56:43.559Z,9.73
2018-10-21T15:59:12.307Z,9.73
2018-10-21T16:01:41.057Z,10.37
2018-10-21T16:04:09.820Z,10.47
2018-10-21T16:06:38.713Z,10.90
2018-10-21T16:09:10.141Z,10.83
2018-10-21T16:11:38.865Z,10.40
2018-10-21T16:14:07.734Z,11.37
2018-10-21T16:16:36.408Z,11.77
2018-10-21T16:19:05.221Z,11.60
2018-10-21T16:21:33.958Z,11.00
2018-10-21T16:24:02.664Z,12.37
2018-10-21T16:26:31.380Z,12.03
2018-10-21T16:29:00.102Z,11.53
2018-10-21T16:31:28.886Z,11.73
2018-10-21T16:33:57.753Z,14.33
2018-10-21T16:36:26.429Z,19.83
2018-10-21T16:38:55.527Z,17.77
2018-10-21T16:41:29.353Z,13.00
2018-10-21T16:43:58.074Z,12.43
2018-10-21T16:46:26.813Z,13.00
2018-10-21T16:48:55.479Z,12.87
2018-10-21T16:51:24.276Z,13.20
2018-10-21T16:53:52.941Z,14.13
2018-10-21T16:56:21.729Z,14.30
2018-10-21T16:58:50.411Z,14.30
2018-10-21T17:01:19.093Z,14.23
2018-10-21T17:03:47.934Z,13.73
2018-10-21T17:06:16.583Z,14.43
2018-10-21T17:08:45.461Z,13.93
2018-10-21T17:11:14.167Z,14.10
2018-10-21T17:13:42.872Z,14.00
2018-10-21T17:16:11.705Z,14.80
2018-10-21T17:18:40.460Z,14.70
2018-10-21T17:21:09.314Z,16.60
2018-10-21T17:23:38.022Z,15.70
2018-10-21T17:26:06.765Z,16.13
2018-10-21T17:28:35.784Z,16.53
2018-10-21T17:31:04.717Z,14.77
2018-10-21T17:33:33.497Z,16.37
2018-10-21T17:36:02.289Z,17.13
2018-10-21T17:38:31.093Z,15.97
2018-10-21T17:41:00.037Z,15.97
2018-10-21T17:43:29.025Z,15.60
2018-10-21T17:45:58.044Z,16.27
2018-10-21T17:48:27.049Z,16.27
2018-10-21T17:50:55.953Z,16.40
2018-10-21T17:53:25.011Z,16.77
2018-10-21T17:55:53.749Z,17.20
2018-10-21T17:58:22.624Z,18.20
2018-10-21T18:00:51.473Z,16.83
2018-10-21T18:03:20.270Z,18.43
2018-10-21T18:05:49.201Z,19.50
2018-10-21T18:08:18.604Z,21.30
2018-10-21T18:10:47.347Z,19.23
2018-10-21T18:13:16.257Z,19.10
2018-10-21T18:15:45.152Z,19.33
2018-10-21T18:18:13.894Z,18.53
2018-10-21T18:20:42.691Z,19.17
2018-10-21T18:23:11.509Z,17.80
2018-10-21T18:25:40.450Z,18.07
2018-10-21T18:28:09.172Z,20.33
2018-10-21T18:30:37.932Z,19.97
2018-10-21T18:33:06.726Z,19.13
2018-10-21T18:35:35.658Z,21.47
2018-10-21T18:38:04.415Z,21.23
2018-10-21T18:40:33.455Z,20.93
2018-10-21T18:43:02.234Z,21.07
2018-10-21T18:45:30.985Z,20.53
2018-10-21T18:47:59.996Z,21.03
2018-10-21T18:50:28.855Z,20.03
2018-10-21T18:52:57.570Z,20.37
2018-10-21T18:55:26.397Z,20.13
2018-10-21T18:57:55.211Z,20.57
2018-10-21T19:00:24.442Z,21.07
2018-10-21T19:02:53.253Z,20.60
2018-10-21T19:05:22.114Z,22.13
2018-10-21T19:07:50.961Z,21.67
2018-10-21T19:10:21.588Z,20.83
2018-10-21T19:13:00.048Z,21.80
2018-10-21T19:15:19.351Z,21.47
2018-10-21T19:17:48.144Z,22.47
2018-10-21T19:20:17.619Z,22.40
2018-10-21T19:22:46.386Z,21.70
2018-10-21T19:25:16.131Z,22.33
2018-10-21T19:27:45.684Z,21.50
2018-10-21T19:30:15.058Z,22.13
2018-10-21T19:32:44.145Z,21.13
2018-10-21T19:35:13.863Z,22.60
2018-10-21T19:37:42.660Z,21.80
2018-10-21T19:40:12.900Z,22.00
2018-10-21T19:42:42.127Z,22.37
2018-10-21T19:45:12.040Z,23.33
2018-10-21T19:47:41.344Z,22.00
2018-10-21T19:50:12.014Z,22.23
2018-10-21T19:52:41.768Z,23.67
2018-10-21T19:55:10.930Z,21.60
2018-10-21T19:57:39.676Z,23.00
2018-10-21T20:00:10.620Z,22.33
2018-10-21T20:02:39.314Z,22.10
2018-10-21T20:05:08.724Z,22.10
2018-10-21T20:07:37.484Z,23.00
2018-10-21T20:10:08.162Z,23.50
2018-10-21T20:12:37.502Z,22.83
2018-10-21T20:15:07.566Z,22.97
2018-10-21T20:17:36.336Z,22.80
2018-10-21T20:20:06.000Z,23.80
2018-10-21T20:22:34.839Z,23.27
2018-10-21T20:25:03.967Z,23.13
2018-10-21T20:27:32.778Z,22.30
2018-10-21T20:30:01.545Z,23.20
2018-10-21T20:32:30.643Z,24.47
2018-10-21T20:34:59.346Z,24.00
2018-10-21T20:37:28.342Z,23.30
2018-10-21T20:39:57.173Z,23.67
2018-10-21T20:42:26.066Z,23.93
2018-10-21T20:44:55.833Z,24.67
2018-10-21T20:47:24.606Z,24.10
2018-10-21T20:49:53.372Z,24.53
2018-10-21T20:52:22.487Z,24.17
2018-10-21T20:54:51.310Z,24.27
2018-10-21T20:57:20.150Z,23.53
2018-10-21T20:59:48.879Z,23.83
2018-10-21T21:02:17.781Z,24.97
2018-10-21T21:04:46.521Z,25.13
2018-10-21T21:07:15.456Z,24.73
2018-10-21T21:09:44.281Z,24.07
2018-10-21T21:12:13.196Z,25.00
2018-10-21T21:14:42.013Z,24.47
2018-10-21T21:17:10.805Z,24.53
2018-10-21T21:19:39.677Z,24.93
2018-10-21T21:22:08.449Z,23.47
2018-10-21T21:24:37.289Z,25.17
2018-10-21T21:27:06.081Z,24.10
2018-10-21T21:29:35.096Z,24.53
2018-10-21T21:32:03.948Z,25.20
2018-10-21T21:34:32.644Z,23.73
2018-10-21T21:37:01.583Z,24.67
2018-10-21T21:39:31.444Z,25.17
2018-10-21T21:42:00.401Z,24.23
2018-10-21T21:44:29.144Z,24.97
2018-10-21T21:46:57.899Z,23.47
2018-10-21T21:49:26.607Z,23.43
2018-10-21T21:51:55.490Z,24.30
2018-10-21T21:54:24.147Z,25.27
2018-10-21T21:56:52.874Z,23.33
2018-10-21T21:59:21.710Z,24.13
2018-10-21T22:01:50.514Z,24.87
2018-10-21T22:04:19.546Z,24.10
2018-10-21T22:06:48.390Z,24.50
2018-10-21T22:09:17.177Z,22.93
2018-10-21T22:11:46.083Z,24.47
2018-10-21T22:14:14.866Z,23.63
2018-10-21T22:16:43.552Z,24.47
2018-10-21T22:19:12.297Z,24.10
2018-10-21T22:21:41.085Z,23.83
2018-10-21T22:24:10.190Z,24.40
2018-10-21T22:26:38.943Z,24.27
2018-10-21T22:29:07.853Z,25.97
2018-10-21T22:31:36.737Z,24.43
2018-10-21T22:34:05.635Z,24.27
2018-10-21T22:36:34.467Z,24.73
2018-10-21T22:39:03.787Z,24.07
2018-10-21T22:41:32.835Z,24.73
2018-10-21T22:44:01.645Z,24.03
2018-10-21T22:46:30.419Z,23.93
2018-10-21T22:48:59.142Z,25.00
2018-10-21T22:51:27.882Z,25.70
2018-10-21T22:53:56.702Z,24.87
2018-10-21T22:56:25.407Z,24.63
2018-10-21T22:58:54.259Z,24.57
2018-10-21T23:01:23.053Z,25.13
2018-10-21T23:03:51.778Z,24.13
2018-10-21T23:06:20.939Z,24.13
2018-10-21T23:08:49.821Z,25.23
2018-10-21T23:11:18.523Z,24.87
2018-10-21T23:13:47.449Z,23.97
2018-10-21T23:16:16.313Z,24.13
2018-10-21T23:18:45.011Z,24.47
2018-10-21T23:21:13.810Z,25.83
2018-10-21T23:23:42.857Z,25.47
2018-10-21T23:26:11.606Z,24.60
2018-10-21T23:28:40.372Z,25.20
2018-10-21T23:31:09.236Z,25.43
2018-10-21T23:33:38.076Z,25.33
2018-10-21T23:36:06.838Z,23.97
2018-10-21T23:38:35.536Z,25.80
2018-10-21T23:41:04.238Z,26.70
2018-10-21T23:43:33.056Z,24.57
2018-10-21T23:46:01.800Z,24.93
2018-10-21T23:48:30.518Z,26.37
2018-10-21T23:50:59.199Z,24.87
2018-10-21T23:53:27.882Z,26.17
2018-10-21T23:55:56.674Z,26.63
2018-10-21T23:58:25.364Z,26.03
